Decoded Metar for PADG ( in _UNIDENTIFIED) (IATA:N/A) | Meteo·Mobile Aviation Weather
aviador You're here:

PADG Decoded Metar

in _UNIDENTIFIED
Report Time2018-12-14 21:45:00
UTC Time2018-12-15 00:05:45
Flight Rules Old
Wind030° at 06 kt
W.Decomp.*RWY 03: 5.8 kt HW 1.6 kt LCW
W.Rank030° ranks 1
Current wind is below 030° avg. (7.5)
Visibility4828 m
Phenomena:Light Snow
Mist
Clouds:Few 008 Hf
Broken 016 Hf
Overcast 025 Hf
Expected CloudBase > 1,200 ft AGL from Temp-Dew spread
Ceiling1,600 ft
Temp-20°C (ISA -33)
Dew Point-23°C (77% RH)
AAT-25.8°C
QNH993 hPa
Density Alt-2,533 ft
Elevation974 ft
Report Wrong Elevation
Raw Report
PADG 142145Z 03006KT 3SM -SN BR FEW008 BKN016 OVC025 M20/M23 A2933=

Extra information for PADG:More info

Metar Taf Metar & Taf Last 4 Metars F.Rules Stats Wind Profile Meteogram Temp Stats Metar ALERT Operation Metar Decoded Social comments